Data for 12/10/2014

Time Sea-Level Adjusted Pressure Absolute Pressure Temperature Relative Humidity Dew Point   
(mb) (inHg) (mb) (inHg) (C) (F) (%) (C) (F)
00:05 1020 30.12 849 25.07 5.2 41.3 57 -2.5 27.4
00:10 1020 30.12 849 25.07 4.7 40.4 57 -3 26.6
00:15 1020 30.12 850 25.1 5.1 41.1 55 -3.2 26.3
00:20 1020 30.12 850 25.1 5.2 41.4 56 -2.9 26.9
00:25 1020 30.12 850 25.1 5.1 41.1 56 -3 26.6
00:30 1020 30.12 850 25.1 5 41.1 57 -2.9 26.8
00:35 1020 30.12 850 25.1 5 41 57 -2.9 26.9
00:40 1020 30.12 850 25.1 4.4 40 59 -2.8 26.9
00:45 1020 30.12 850 25.1 4.4 39.9 58 -3.1 26.5
00:50 1020 30.12 849 25.07 4.5 40.1 59 -2.9 26.8
00:55 1020 30.12 849 25.07 4 39.1 62 -2.7 27.2
01:00 1020 30.12 849 25.07 3.6 38.5 61 -3.3 26.1
01:05 1020 30.12 849 25.07 3.7 38.7 62 -3 26.7
01:10 1020 30.12 849 25.07 3.8 38.9 61 -3.1 26.5
01:15 1020 30.12 849 25.07 3.9 39 62 -2.8 27
01:20 1020 30.12 849 25.07 3.5 38.4 61 -3.2 26.3
01:25 1020 30.12 849 25.07 3.8 38.8 61 -3 26.6
01:30 1020 30.12 849 25.07 3.6 38.5 64 -2.7 27.2
01:35 1020 30.12 849 25.07 2.8 37.1 66 -2.9 26.9
01:40 1020 30.12 849 25.07 2.5 36.5 68 -2.9 26.8
01:45 1020 30.12 849 25.07 2.6 36.6 66 -3.1 26.4
01:50 1020 30.12 849 25.07 3 37.3 65 -2.9 26.7
01:55 1020 30.12 849 25.07 2.7 36.8 67 -2.9 26.8
02:00 1020 30.12 849 25.07 2.9 37.3 65 -3.1 26.4
02:05 1020 30.12 849 25.07 3.8 38.8 61 -3.1 26.4
02:10 1020 30.12 849 25.07 3.7 38.7 62 -2.8 27
02:15 1020 30.12 849 25.07 3.5 38.2 64 -2.8 27
02:20 1020 30.12 849 25.07 4 39.1 60 -3.1 26.3
02:25 1020 30.12 849 25.07 4.1 39.4 60 -2.9 26.7
02:30 1020 30.12 849 25.07 4 39.2 59 -3.2 26.3
02:35 1020 30.12 849 25.07 4 39.3 60 -2.9 26.7
02:40 1020 30.12 849 25.07 4 39.2 59 -3.3 26.1
02:45 1020 30.12 849 25.07 4.2 39.5 60 -2.9 26.9
02:50 1020 30.12 849 25.07 3.8 38.8 61 -3 26.6
02:55 1020 30.12 849 25.07 3.8 38.8 61 -3.1 26.5
03:00 1020 30.12 849 25.07 3.9 39.1 60 -3 26.5
03:05 1020 30.12 849 25.07 4 39.1 61 -2.9 26.7
03:10 1020 30.12 849 25.07 3.9 39 61 -2.9 26.8
03:15 1020 30.12 849 25.07 3.3 37.9 65 -2.7 27.1
03:20 1020 30.12 849 25.07 2.3 36.2 67 -3.2 26.2
03:25 1020 30.12 849 25.07 3 37.3 65 -3 26.6
03:30 1020 30.12 849 25.07 2.9 37.2 65 -3.1 26.5
03:35 1020 30.12 849 25.07 3.1 37.5 65 -2.9 26.7
03:40 1020 30.12 849 25.07 2.7 36.9 66 -2.9 26.7
03:45 1020 30.12 849 25.07 2.4 36.3 68 -3 26.6
03:50 1020 30.12 850 25.1 2 35.5 68 -3.3 26.1
03:55 1020 30.12 850 25.1 2.7 36.9 64 -3.3 26
04:00 1020 30.12 850 25.1 3.2 37.7 63 -3.1 26.4
04:05 1020 30.12 850 25.1 3 37.4 65 -3 26.6
04:10 1020 30.12 850 25.1 2.7 36.9 66 -3 26.7
04:15 1020 30.12 849 25.07 2.2 35.9 69 -3 26.6
04:20 1020 30.12 849 25.07 2.5 36.5 66 -3.3 26.1
04:25 1020 30.12 849 25.07 2.4 36.4 67 -3.1 26.3
04:30 1020 30.12 849 25.07 2.3 36.2 66 -3.3 26.1
04:35 1020 30.12 849 25.07 3 37.4 63 -3.3 26.1
04:40 1020 30.12 849 25.07 3.2 37.7 64 -3 26.6
04:45 1020 30.12 849 25.07 3.2 37.7 64 -3.1 26.5
04:50 1020 30.12 849 25.07 2.8 37.1 65 -3.1 26.5
04:55 1020 30.12 849 25.07 2.9 37.2 64 -3.2 26.3
05:00 1020 30.12 849 25.07 3.2 37.7 64 -3.1 26.5
05:05 1020 30.12 849 25.07 3.2 37.8 63 -3.1 26.4
05:10 1020 30.12 849 25.07 3.3 37.9 62 -3.3 26
05:15 1020 30.12 849 25.07 3.6 38.4 61 -3.3 26
05:20 1020 30.12 849 25.07 3.5 38.2 61 -3.3 26
05:25 1020 30.12 849 25.07 3.7 38.7 60 -3.2 26.2
05:30 1020 30.12 849 25.07 3.5 38.3 61 -3.4 26
05:35 1020 30.12 849 25.07 3.6 38.5 60 -3.4 25.9
05:40 1020 30.12 849 25.07 3.9 39 59 -3.4 25.9
05:45 1020 30.12 849 25.07 3.9 39.1 59 -3.4 25.9
05:50 1020 30.12 849 25.07 3.9 39 59 -3.3 26
05:55 1020 30.12 849 25.07 4.2 39.5 57 -3.6 25.6
06:00 1020 30.12 849 25.07 4.6 40.2 56 -3.5 25.8
06:05 1020 30.12 849 25.07 4.7 40.5 56 -3.4 25.9
06:10 1020 30.12 849 25.07 4.5 40 58 -3.2 26.3
06:15 1020 30.12 849 25.07 4.1 39.5 59 -3.3 26.1
06:20 1020 30.12 850 25.1 4 39.2 59 -3.3 26
06:25 1020 30.12 849 25.07 4.1 39.3 60 -3.1 26.4
06:30 1020 30.12 850 25.1 3.6 38.5 62 -3.1 26.5
06:35 1020 30.12 850 25.1 3 37.3 64 -3.2 26.3
06:40 1020 30.12 850 25.1 2.9 37.2 64 -3.3 26
06:45 1020 30.12 850 25.1 3.1 37.6 63 -3.3 26.1
06:50 1021 30.15 850 25.1 3.4 38 63 -3.1 26.4
06:55 1021 30.15 850 25.1 3.5 38.2 62 -3.2 26.3
07:00 1021 30.15 850 25.1 3.2 37.8 63 -3.1 26.4
07:05 1020 30.12 850 25.1 3 37.4 64 -3.1 26.5
07:10 1020 30.12 850 25.1 3 37.3 64 -3.1 26.4
07:15 1020 30.12 850 25.1 2.8 37 65 -3.1 26.4
07:20 1020 30.12 850 25.1 2.2 36 66 -3.4 25.8
07:25 1020 30.12 850 25.1 2.7 36.9 65 -3.3 26
07:30 1020 30.12 850 25.1 2.5 36.5 65 -3.4 25.9
07:35 1020 30.12 850 25.1 2.4 36.3 66 -3.3 26
07:40 1020 30.12 850 25.1 2.4 36.3 65 -3.5 25.7
07:45 1020 30.12 849 25.07 2.6 36.7 64 -3.5 25.7
07:50 1020 30.12 849 25.07 2.4 36.4 66 -3.2 26.2
07:55 1020 30.12 849 25.07 2.2 35.9 66 -3.5 25.7
08:00 1020 30.12 849 25.07 2.7 36.8 64 -3.5 25.8
08:05 1020 30.12 849 25.07 2.9 37.2 63 -3.4 25.8
08:10 1020 30.12 849 25.07 2.7 36.9 64 -3.3 26
08:15 1020 30.12 849 25.07 2.1 35.9 67 -3.4 25.9
08:20 1020 30.12 849 25.07 2.2 35.9 66 -3.5 25.7
08:25 1020 30.12 849 25.07 2.6 36.8 63 -3.6 25.4
08:30 1020 30.12 849 25.07 3.2 37.7 61 -3.6 25.5
08:35 1020 30.12 849 25.07 3.7 38.6 59 -3.5 25.6
08:40 1020 30.12 849 25.07 3.9 39 58 -3.5 25.7
08:45 1020 30.12 849 25.07 3.8 38.9 59 -3.4 25.8
08:50 1020 30.12 849 25.07 3.9 39 58 -3.5 25.7
08:55 1020 30.12 849 25.07 4.2 39.6 57 -3.6 25.5
09:00 1020 30.12 849 25.07 4.5 40.2 56 -3.5 25.7
09:05 1020 30.12 849 25.07 4.7 40.4 55 -3.7 25.4
09:10 1020 30.12 849 25.07 4.9 40.8 55 -3.5 25.8
09:15 1020 30.12 849 25.07 4.8 40.6 55 -3.4 25.9
09:20 1020 30.12 849 25.07 4.8 40.7 55 -3.5 25.7
09:25 1020 30.12 849 25.07 4.9 40.8 54 -3.5 25.6
09:30 1020 30.12 849 25.07 5 41 54 -3.5 25.7
09:35 1020 30.12 849 25.07 5 40.9 55 -3.4 25.8
09:40 1020 30.12 849 25.07 4.7 40.5 56 -3.3 26.1
09:45 1020 30.12 849 25.07 4.5 40 57 -3.4 26
09:50 1020 30.12 849 25.07 4.5 40 57 -3.3 26.1
09:55 1020 30.12 849 25.07 4.4 39.9 57 -3.4 25.8
10:00 1020 30.12 850 25.1 4.4 40 58 -3.2 26.2
10:05 1020 30.12 850 25.1 4.3 39.7 59 -3.1 26.4
10:10 1020 30.12 850 25.1 4 39.2 61 -2.8 26.9
10:15 1020 30.12 849 25.07 3.5 38.4 63 -2.9 26.8
10:20 1020 30.12 849 25.07 3.6 38.5 62 -3 26.6
10:25 1020 30.12 849 25.07 3.6 38.5 62 -2.9 26.8
10:30 1020 30.12 849 25.07 3.7 38.6 62 -3 26.6
10:35 1020 30.12 849 25.07 4.2 39.5 60 -2.9 26.7
10:40 1020 30.12 849 25.07 4.2 39.5 60 -2.9 26.9
10:45 1020 30.12 849 25.07 4.5 40 59 -2.9 26.7
10:50 1020 30.12 849 25.07 4.7 40.5 58 -2.8 27
10:55 1020 30.12 849 25.07 5 41.1 57 -2.8 26.9
11:00 1020 30.12 849 25.07 5.1 41.2 56 -2.9 26.7
11:05 1020 30.12 849 25.07 5.5 41.8 54 -3.1 26.3
11:10 1020 30.12 849 25.07 6.3 43.4 50 -3.2 26.2
11:15 1020 30.12 849 25.07 6.9 44.4 49 -2.9 26.7
11:20 1020 30.12 849 25.07 7.5 45.5 48 -2.8 27
11:25 1020 30.12 849 25.07 8 46.3 46 -2.8 26.9
11:30 1020 30.12 849 25.07 8.2 46.8 47 -2.5 27.5
11:35 1020 30.12 849 25.07 8.5 47.2 46 -2.4 27.7
11:40 1020 30.12 849 25.07 8.8 47.8 45 -2.5 27.5
11:45 1020 30.12 849 25.07 8.6 47.5 46 -2.4 27.8
11:50 1020 30.12 849 25.07 8.1 46.6 47 -2.6 27.4
11:55 1020 30.12 849 25.07 7.9 46.2 47 -2.8 27
12:00 1020 30.12 849 25.07 8.2 46.7 45 -3 26.6
12:05 1020 30.12 849 25.07 8.4 47.1 44 -3.1 26.5
12:10 1020 30.12 849 25.07 8.5 47.2 45 -2.9 26.8
12:15 1020 30.12 849 25.07 8 46.4 47 -2.7 27.2
12:20 1020 30.12 849 25.07 7.5 45.5 51 -1.9 28.6
12:25 1020 30.12 849 25.07 7.2 45 52 -2 28.5
12:30 1020 30.12 849 25.07 7 44.6 55 -1.5 29.4
12:35 1020 30.12 849 25.07 6.8 44.2 52 -2.3 27.8
12:40 1020 30.12 849 25.07 7.3 45.2 53 -1.7 29
12:45 1020 30.12 849 25.07 8 46.5 48 -2.3 27.9
12:50 1020 30.12 849 25.07 8.6 47.5 47 -2.2 28.1
12:55 1020 30.12 849 25.07 8.9 48.1 45 -2.5 27.6
13:00 1019 30.09 849 25.07 9 48.2 44 -2.5 27.5
13:05 1019 30.09 849 25.07 9.2 48.6 44 -2.5 27.5
13:10 1019 30.09 849 25.07 9.8 49.7 42 -2.5 27.4
13:15 1019 30.09 848 25.04 9.3 48.7 46 -1.7 28.9
13:20 1019 30.09 848 25.04 9 48.3 44 -2.5 27.4
13:25 1019 30.09 848 25.04 9.3 48.8 45 -2 28.5
13:30 1019 30.09 848 25.04 8.9 48 46 -2 28.4
13:35 1019 30.09 848 25.04 8.4 47 49 -1.8 28.7
13:40 1019 30.09 848 25.04 8.1 46.5 48 -2.4 27.7
13:45 1019 30.09 848 25.04 8.8 47.8 48 -1.6 29.2
13:50 1019 30.09 848 25.04 8.2 46.8 49 -1.9 28.5
13:55 1019 30.09 848 25.04 8.6 47.4 48 -1.8 28.7
14:00 1018 30.06 848 25.04 8.8 47.8 46 -2.1 28.2
14:05 1018 30.06 848 25.04 9.2 48.5 44 -2.5 27.5
14:10 1018 30.06 847 25.01 10 50 42 -2.4 27.7
14:15 1018 30.06 847 25.01 10.5 50.8 42 -2 28.4
14:20 1018 30.06 847 25.01 10 50.1 42 -2.4 27.8
14:25 1018 30.06 847 25.01 9.4 48.9 43 -2.5 27.4
14:30 1018 30.06 847 25.01 9 48.2 44 -2.6 27.3
14:35 1018 30.06 847 25.01 9.1 48.4 43 -2.8 27
14:40 1018 30.06 847 25.01 9 48.1 44 -2.7 27.1
14:45 1018 30.06 847 25.01 9.1 48.3 42 -3 26.6
14:50 1018 30.06 847 25.01 9 48.1 44 -2.8 27
14:55 1018 30.06 847 25.01 8.7 47.6 44 -3 26.6
15:00 1017 30.03 847 25.01 9.1 48.4 42 -3 26.6
15:05 1017 30.03 847 25.01 9.1 48.5 43 -2.9 26.8
15:10 1017 30.03 847 25.01 9.2 48.6 42 -2.9 26.8
15:15 1017 30.03 846 24.98 8.9 48.1 45 -2.3 27.9
15:20 1017 30.03 846 24.98 8.7 47.7 46 -2.3 27.8
15:25 1017 30.03 846 24.98 8.7 47.6 46 -2.4 27.6
15:30 1017 30.03 846 24.98 8.7 47.6 46 -2.2 28.1
15:35 1017 30.03 846 24.98 8.8 47.8 45 -2.4 27.7
15:40 1017 30.03 846 24.98 8.6 47.4 46 -2.2 28
15:45 1017 30.03 846 24.98 8.5 47.4 46 -2.4 27.7
15:50 1017 30.03 846 24.98 8.5 47.4 46 -2.3 27.9
15:55 1017 30.03 846 24.98 8.6 47.4 46 -2.3 27.9
16:00 1017 30.03 846 24.98 8.5 47.2 47 -2.1 28.2
16:05 1017 30.03 846 24.98 8.3 46.9 48 -2.2 28.1
16:10 1017 30.03 846 24.98 8.1 46.5 48 -2.2 28.1
16:15 1017 30.03 846 24.98 8.1 46.6 49 -1.8 28.7
16:20 1017 30.03 846 24.98 8 46.3 49 -1.9 28.5
16:25 1017 30.03 846 24.98 8 46.4 49 -2 28.4
16:30 1017 30.03 846 24.98 7.9 46.3 51 -1.7 29
16:35 1017 30.03 846 24.98 7.9 46.1 51 -1.7 29
16:40 1017 30.03 846 24.98 8 46.4 50 -1.6 29
16:45 1017 30.03 846 24.98 8.2 46.8 50 -1.6 29.1
16:50 1017 30.03 846 24.98 8.3 46.9 50 -1.5 29.3
16:55 1017 30.03 846 24.98 8.2 46.8 51 -1.4 29.5
17:00 1017 30.03 846 24.98 8.1 46.5 51 -1.4 29.4
17:05 1017 30.03 846 24.98 7.9 46.3 52 -1.4 29.5
17:10 1017 30.03 846 24.98 7.8 46 52 -1.4 29.5
17:15 1017 30.03 846 24.98 7.6 45.7 53 -1.3 29.6
17:20 1016 30 846 24.98 7.4 45.4 55 -1 30.2
17:25 1016 30 846 24.98 7.2 44.9 56 -0.9 30.3
17:30 1016 30 846 24.98 7.2 45 55 -1.1 30
17:35 1016 30 846 24.98 7.3 45.2 55 -1 30.2
17:40 1016 30 846 24.98 7.3 45.1 54 -1.5 29.3
17:45 1016 30 846 24.98 7.6 45.7 52 -1.6 29.1
17:50 1017 30.03 846 24.98 7.7 45.8 50 -2.2 28.1
17:55 1017 30.03 846 24.98 7.5 45.5 51 -1.9 28.6
18:00 1017 30.03 846 24.98 7.3 45.1 52 -2.1 28.3
18:05 1017 30.03 846 24.98 7.6 45.7 52 -1.7 29
18:10 1016 30 846 24.98 7 44.7 54 -1.5 29.3
18:15 1016 30 846 24.98 6.3 43.4 58 -1.3 29.6
18:20 1016 30 845 24.95 5.6 42 59 -1.8 28.7
18:25 1016 30 845 24.95 5.1 41.2 61 -1.9 28.6
18:30 1016 30 845 24.95 4.7 40.5 60 -2.3 27.8
18:35 1016 30 845 24.95 4.9 40.8 56 -3.2 26.3
18:40 1016 30 845 24.95 6.2 43.2 50 -3.4 25.9
18:45 1016 30 845 24.95 6.5 43.7 51 -2.8 27
18:50 1016 30 845 24.95 6.4 43.5 50 -3.3 26
18:55 1016 30 845 24.95 6.7 44.1 49 -3.2 26.3
19:00 1016 30 845 24.95 6.6 43.8 50 -3.1 26.3
19:05 1016 30 845 24.95 6.6 43.8 50 -3.1 26.3
19:10 1016 30 845 24.95 6.5 43.7 50 -3.1 26.4
19:15 1015 29.97 845 24.95 6.7 44 48 -3.5 25.7
19:20 1015 29.97 845 24.95 7.1 44.7 47 -3.6 25.6
19:25 1015 29.97 845 24.95 7.2 44.9 47 -3.4 25.9
19:30 1015 29.97 845 24.95 7.1 44.7 46 -3.7 25.3
19:35 1015 29.97 844 24.92 7.4 45.2 45 -3.8 25.2
19:40 1015 29.97 844 24.92 7.5 45.4 44 -3.9 24.9
19:45 1015 29.97 844 24.92 7.8 46 42 -4.2 24.4
19:50 1015 29.97 844 24.92 7.6 45.7 43 -4.1 24.6
19:55 1015 29.97 844 24.92 7.6 45.7 44 -4 24.9
20:00 1015 29.97 845 24.95 7.4 45.4 43 -4.4 24
20:05 1015 29.97 844 24.92 7.7 45.8 42 -4.4 24.2
20:10 1015 29.97 845 24.95 7.6 45.7 42 -4.4 24
20:15 1015 29.97 844 24.92 7.5 45.4 43 -4.4 24
20:20 1015 29.97 844 24.92 7.4 45.4 41 -4.8 23.4
20:25 1015 29.97 844 24.92 7.5 45.4 42 -4.5 23.8
20:30 1015 29.97 844 24.92 7.3 45.2 42 -4.9 23.2
20:35 1015 29.97 844 24.92 7.6 45.6 41 -4.8 23.4
20:40 1015 29.97 844 24.92 7.6 45.7 41 -4.9 23.2
20:45 1015 29.97 844 24.92 7.4 45.2 42 -4.6 23.7
20:50 1015 29.97 844 24.92 7.1 44.8 42 -4.8 23.3
20:55 1015 29.97 844 24.92 7.1 44.8 41 -5.1 22.7
21:00 1015 29.97 844 24.92 7.3 45.1 41 -5.2 22.7
21:05 1015 29.97 844 24.92 7.3 45.2 40 -5.3 22.5
21:10 1015 29.97 844 24.92 7.5 45.4 40 -5.4 22.3
21:15 1015 29.97 844 24.92 7.5 45.5 40 -5 22.9
21:20 1015 29.97 844 24.92 7.2 45 40 -5.3 22.4
21:25 1015 29.97 844 24.92 7.6 45.7 39 -5.6 21.9
21:30 1015 29.97 844 24.92 7.7 45.9 41 -4.8 23.4
21:35 1015 29.97 844 24.92 7.1 44.8 41 -5.4 22.4
21:40 1015 29.97 844 24.92 7.3 45.2 41 -5.2 22.7
21:45 1015 29.97 844 24.92 7.4 45.3 39 -5.5 22
21:50 1015 29.97 844 24.92 7.5 45.4 41 -5 23
21:55 1015 29.97 844 24.92 7.3 45.1 41 -5.1 22.8
22:00 1015 29.97 844 24.92 7.1 44.7 42 -5 22.9
22:05 1015 29.97 844 24.92 6.7 44.1 44 -4.8 23.4
22:10 1015 29.97 844 24.92 6.3 43.3 44 -5 23
22:15 1015 29.97 844 24.92 5.8 42.5 46 -4.8 23.4
22:20 1014 29.94 844 24.92 5.4 41.7 49 -4.5 23.8
22:25 1014 29.94 844 24.92 4.7 40.5 50 -4.8 23.4
22:30 1014 29.94 844 24.92 4.8 40.7 49 -4.9 23.1
22:35 1014 29.94 844 24.92 5.1 41.1 48 -4.9 23.1
22:40 1014 29.94 843 24.89 5.2 41.4 48 -4.9 23.1
22:45 1014 29.94 843 24.89 5.3 41.6 48 -4.8 23.4
22:50 1014 29.94 843 24.89 5.4 41.8 47 -5 23
22:55 1014 29.94 843 24.89 5.7 42.2 45 -5.4 22.3
23:00 1014 29.94 843 24.89 6.2 43.1 46 -4.7 23.6
23:05 1014 29.94 843 24.89 5.7 42.3 46 -5.1 22.8
23:10 1014 29.94 843 24.89 6 42.9 44 -5.4 22.3
23:15 1014 29.94 843 24.89 6.3 43.3 43 -5.5 22.1
23:20 1014 29.94 843 24.89 6.7 44.1 41 -5.5 22.1
23:25 1014 29.94 843 24.89 6.6 44 43 -5.2 22.7
23:30 1014 29.94 843 24.89 6.2 43.1 45 -4.9 23.1
23:35 1014 29.94 843 24.89 5.8 42.5 44 -5.4 22.3
23:40 1014 29.94 843 24.89 6 42.8 46 -4.7 23.5
23:45 1014 29.94 843 24.89 5.5 41.9 46 -5.2 22.7
23:50 1014 29.94 843 24.89 5.3 41.6 49 -4.5 23.9
23:55 1014 29.94 843 24.89 5.1 41.1 47 -5.4 22.3
24:00 1014 29.94 843 24.89 5.3 41.5 49 -4.7 23.6